Time;durP1;ratioP1;P1;durP2;ratioP2;P2;SDS_P1;SDS_P2;PMS_P1;PMS_P2;Temp;Humidity;BMP_temperature;BMP_pressure;BME280_temperature;BME280_humidity;BME280_pressure;Samples;Min_cycle;Max_cycle;Signal;HPM_P1;HPM_P2
2022/09/06 00:01:39;;;;;;;4.27;3.47;;;17.60;99.90;;;;;;5036381;28;20653;-93
2022/09/06 00:04:06;;;;;;;4.93;2.97;;;17.60;99.90;;;;;;5030838;28;20627;-93
2022/09/06 00:06:33;;;;;;;3.70;3.43;;;17.50;99.90;;;;;;5033351;28;20630;-93
2022/09/06 00:09:00;;;;;;;3.50;3.30;;;17.50;99.90;;;;;;5029750;28;20670;-94
2022/09/06 00:11:27;;;;;;;3.80;3.30;;;17.50;99.90;;;;;;5031451;28;20635;-93
2022/09/06 00:13:53;;;;;;;7.83;4.07;;;17.50;99.90;;;;;;5054434;28;20730;-93
2022/09/06 00:16:23;;;;;;;5.03;3.70;;;17.40;99.90;;;;;;5047250;28;20646;-93
2022/09/06 00:18:53;;;;;;;6.00;4.00;;;17.40;99.90;;;;;;5033562;28;20658;-93
2022/09/06 00:21:22;;;;;;;4.10;3.70;;;17.30;99.90;;;;;;5032953;28;20687;-93
2022/09/06 00:23:50;;;;;;;5.43;4.00;;;17.30;99.90;;;;;;5028615;28;20619;-93
2022/09/06 00:26:17;;;;;;;3.50;3.13;;;17.30;99.90;;;;;;5026015;28;20654;-93
2022/09/06 00:28:44;;;;;;;3.93;3.60;;;17.30;99.90;;;;;;5028139;28;20685;-93
2022/09/06 00:31:12;;;;;;;5.50;3.80;;;17.30;99.90;;;;;;5028353;28;20631;-94
2022/09/06 00:33:39;;;;;;;5.13;3.80;;;17.20;99.90;;;;;;5032404;28;20677;-93
2022/09/06 00:36:08;;;;;;;4.00;3.60;;;17.20;99.90;;;;;;5025291;28;20624;-94
2022/09/06 00:38:35;;;;;;;5.13;4.23;;;17.20;99.90;;;;;;5033219;28;20654;-93
2022/09/06 00:41:03;;;;;;;3.83;3.43;;;17.20;99.90;;;;;;5037334;28;21110;-93
2022/09/06 00:43:29;;;;;;;4.87;3.83;;;17.10;99.90;;;;;;5032741;28;20631;-93
2022/09/06 00:45:57;;;;;;;3.77;3.47;;;17.10;99.90;;;;;;5032485;28;20634;-93
2022/09/06 00:48:25;;;;;;;3.97;3.67;;;17.10;99.90;;;;;;5037266;28;20651;-93
2022/09/06 00:50:56;;;;;;;8.90;5.93;;;17.10;99.90;;;;;;5032126;28;20630;-93
2022/09/06 00:53:25;;;;;;;4.13;3.77;;;17.00;99.90;;;;;;5015472;28;20658;-93
2022/09/06 00:55:53;;;;;;;7.67;3.60;;;17.00;99.90;;;;;;5031500;28;21262;-93
2022/09/06 00:58:20;;;;;;;10.23;5.37;;;17.00;99.90;;;;;;5031381;28;20638;-93
2022/09/06 01:00:46;;;;;;;3.53;3.33;;;16.90;99.90;;;;;;5029785;28;20635;-93
2022/09/06 01:03:14;;;;;;;3.53;3.23;;;17.00;99.90;;;;;;5032562;28;20634;-93
2022/09/06 01:05:49;;;;;;;3.80;3.50;;;16.90;99.90;;;;;;5030934;28;20765;-94
2022/09/06 01:08:26;;;;;;;3.80;3.23;;;16.90;99.90;;;;;;5031179;28;20641;-93
2022/09/06 01:11:23;;;;;;;6.23;3.90;;;16.80;99.90;;;;;;5026097;28;20634;-94
2022/09/06 01:13:59;;;;;;;5.27;4.30;;;16.80;99.90;;;;;;5029516;28;20654;-93
2022/09/06 01:16:34;;;;;;;4.03;3.63;;;16.80;99.90;;;;;;5052785;28;20818;-93
2022/09/06 01:19:29;;;;;;;3.80;3.27;;;16.80;99.90;;;;;;5048740;28;20661;-93
2022/09/06 01:22:09;;;;;;;5.70;4.50;;;16.80;99.90;;;;;;5027262;28;20976;-94
2022/09/06 01:25:03;;;;;;;3.90;3.60;;;16.70;99.90;;;;;;5032038;28;20618;-93
2022/09/06 01:27:57;;;;;;;4.50;3.70;;;16.70;99.90;;;;;;5024621;28;20650;-93
2022/09/06 01:30:24;;;;;;;3.93;3.43;;;16.60;99.90;;;;;;5030201;28;20650;-93
2022/09/06 01:32:56;;;;;;;4.00;3.60;;;16.60;99.90;;;;;;5030939;28;20689;-93
2022/09/06 01:35:33;;;;;;;3.90;3.67;;;16.60;99.90;;;;;;5031302;28;20635;-93
2022/09/06 01:38:00;;;;;;;4.63;4.23;;;16.60;99.90;;;;;;5034552;28;20637;-94
2022/09/06 01:40:28;;;;;;;5.10;4.27;;;16.60;99.90;;;;;;5036998;28;20718;-93
2022/09/06 01:42:58;;;;;;;3.93;3.67;;;16.60;99.90;;;;;;5034952;28;20622;-93
2022/09/06 01:45:40;;;;;;;4.70;4.30;;;16.60;99.90;;;;;;5032855;28;21014;-93
2022/09/06 01:48:14;;;;;;;4.17;3.80;;;16.60;99.90;;;;;;5026442;28;21080;-94
2022/09/06 01:50:54;;;;;;;4.20;3.80;;;16.60;99.90;;;;;;5024480;28;20603;-93
2022/09/06 01:53:39;;;;;;;6.30;4.43;;;16.60;99.90;;;;;;5032591;28;20686;-93
2022/09/06 01:56:15;;;;;;;5.00;3.97;;;16.60;99.90;;;;;;5035893;28;20627;-93
2022/09/06 01:59:01;;;;;;;4.37;3.97;;;16.60;99.90;;;;;;5033317;28;20646;-93
2022/09/06 02:01:35;;;;;;;4.23;3.83;;;16.50;99.90;;;;;;5018638;28;20971;-93
2022/09/06 02:04:09;;;;;;;4.23;3.97;;;16.50;99.90;;;;;;5031661;28;20637;-94
2022/09/06 02:06:42;;;;;;;4.17;3.87;;;16.50;99.90;;;;;;5019677;28;20623;-93
2022/09/06 02:09:13;;;;;;;7.07;4.80;;;16.50;99.90;;;;;;5031304;28;20653;-93
2022/09/06 02:11:45;;;;;;;5.67;5.17;;;16.50;99.90;;;;;;5031919;28;20646;-93
2022/09/06 02:14:17;;;;;;;5.07;4.10;;;16.50;99.90;;;;;;5029846;28;20709;-93
2022/09/06 02:16:47;;;;;;;5.20;4.80;;;16.60;99.90;;;;;;5007222;28;20630;-93
2022/09/06 02:19:20;;;;;;;5.20;4.80;;;16.50;99.90;;;;;;5031089;28;20665;-93
2022/09/06 02:21:49;;;;;;;5.73;4.50;;;16.60;99.90;;;;;;5024524;28;20897;-93
2022/09/06 02:24:22;;;;;;;5.23;4.90;;;16.50;99.90;;;;;;5030473;28;21523;-93
2022/09/06 02:26:50;;;;;;;7.53;4.77;;;16.50;99.90;;;;;;5024805;28;20955;-93
2022/09/06 02:29:18;;;;;;;4.80;4.50;;;16.50;99.90;;;;;;5031377;28;20753;-94
2022/09/06 02:31:49;;;;;;;6.03;5.50;;;16.50;99.90;;;;;;5031681;28;20626;-94
2022/09/06 02:34:19;;;;;;;6.40;6.00;;;16.60;99.90;;;;;;5053614;28;20652;-93
2022/09/06 02:36:48;;;;;;;5.80;5.30;;;16.70;99.90;;;;;;5043092;28;20626;-93
2022/09/06 02:39:16;;;;;;;6.00;5.60;;;16.80;99.90;;;;;;5035149;28;20713;-93
2022/09/06 02:41:45;;;;;;;7.50;6.87;;;16.80;99.90;;;;;;5025318;28;20637;-93
2022/09/06 02:44:12;;;;;;;6.60;6.00;;;16.90;99.90;;;;;;5030810;28;21251;-94
2022/09/06 02:46:41;;;;;;;7.73;6.90;;;17.00;99.90;;;;;;5030844;28;20627;-92
2022/09/06 02:49:07;;;;;;;7.40;6.70;;;17.10;99.90;;;;;;5031729;28;20658;-93
2022/09/06 02:51:36;;;;;;;6.83;6.20;;;17.10;99.90;;;;;;5034569;28;20634;-93
2022/09/06 02:54:03;;;;;;;6.67;6.07;;;17.10;99.90;;;;;;5032526;28;20666;-93
2022/09/06 02:56:32;;;;;;;6.17;5.60;;;17.20;99.90;;;;;;5029367;28;20634;-93
2022/09/06 02:58:59;;;;;;;7.53;6.90;;;17.30;99.90;;;;;;5031914;28;20669;-93
2022/09/06 03:01:26;;;;;;;6.80;6.30;;;17.30;99.90;;;;;;5036856;28;20638;-94
2022/09/06 03:03:57;;;;;;;5.33;4.93;;;17.40;99.90;;;;;;5034567;28;20633;-93
2022/09/06 03:06:24;;;;;;;4.93;4.53;;;17.40;99.90;;;;;;5030295;28;21195;-93
2022/09/06 03:08:51;;;;;;;5.10;4.80;;;17.60;99.90;;;;;;5030534;28;21028;-93
2022/09/06 03:11:19;;;;;;;6.30;4.80;;;17.70;99.90;;;;;;5033911;28;20626;-94
2022/09/06 03:13:46;;;;;;;4.40;4.10;;;17.80;99.90;;;;;;5030504;28;20669;-92
2022/09/06 03:16:13;;;;;;;10.90;6.30;;;17.90;99.90;;;;;;5031833;28;21314;-90
2022/09/06 03:18:40;;;;;;;10.70;5.90;;;18.00;99.90;;;;;;5035010;28;20666;-92
2022/09/06 03:21:08;;;;;;;7.13;5.40;;;18.10;99.90;;;;;;5028567;28;20635;-92
2022/09/06 03:23:38;;;;;;;5.70;5.07;;;18.10;99.90;;;;;;5029140;28;20630;-94
2022/09/06 03:26:05;;;;;;;5.00;4.50;;;18.20;99.90;;;;;;5035355;28;20730;-94
2022/09/06 03:28:32;;;;;;;5.87;4.80;;;18.10;99.90;;;;;;5031190;28;20645;-93
2022/09/06 03:30:59;;;;;;;7.90;5.10;;;18.20;99.90;;;;;;5028052;28;20722;-94
2022/09/06 03:33:26;;;;;;;5.57;5.03;;;18.10;99.90;;;;;;5028822;28;20773;-94
2022/09/06 03:35:54;;;;;;;5.40;4.90;;;18.10;99.90;;;;;;5028646;28;20656;-94
2022/09/06 03:38:24;;;;;;;5.13;4.73;;;18.10;99.90;;;;;;5028527;28;20678;-94
2022/09/06 03:40:51;;;;;;;7.77;6.80;;;18.20;99.90;;;;;;5033718;28;20611;-94
2022/09/06 03:43:19;;;;;;;5.43;4.93;;;18.10;99.90;;;;;;5029055;28;20627;-95
2022/09/06 03:45:47;;;;;;;6.50;5.90;;;18.10;99.90;;;;;;5022378;28;20634;-94
2022/09/06 03:48:15;;;;;;;6.13;5.53;;;18.00;99.90;;;;;;5031252;28;20633;-94
2022/09/06 03:50:45;;;;;;;6.53;5.93;;;18.00;99.90;;;;;;5036927;28;20625;-94
2022/09/06 03:53:13;;;;;;;7.33;6.73;;;17.90;99.90;;;;;;5061311;28;20646;-94
2022/09/06 03:55:44;;;;;;;5.70;5.10;;;17.90;99.90;;;;;;5028525;28;21292;-95
2022/09/06 03:58:11;;;;;;;6.77;6.00;;;17.90;99.90;;;;;;5031422;28;20611;-94
2022/09/06 04:00:39;;;;;;;7.30;5.40;;;17.80;99.90;;;;;;5026726;28;20637;-94
2022/09/06 04:03:06;;;;;;;6.63;5.67;;;17.80;99.90;;;;;;5030479;28;20642;-93
2022/09/06 04:05:33;;;;;;;6.60;6.10;;;17.70;99.90;;;;;;5051132;28;20709;-93
2022/09/06 04:08:01;;;;;;;7.83;6.40;;;17.70;99.90;;;;;;5049911;28;20705;-93
2022/09/06 04:10:28;;;;;;;8.33;6.00;;;17.60;99.90;;;;;;5040061;28;20696;-94
2022/09/06 04:12:56;;;;;;;6.40;5.80;;;17.70;99.90;;;;;;5029571;28;21352;-93
2022/09/06 04:15:23;;;;;;;8.07;7.27;;;17.70;99.90;;;;;;5020197;28;20691;-94
2022/09/06 04:17:51;;;;;;;7.40;6.70;;;17.60;99.90;;;;;;5028378;28;20627;-93
2022/09/06 04:20:18;;;;;;;7.07;6.57;;;17.60;99.90;;;;;;5030103;28;21292;-93
2022/09/06 04:22:45;;;;;;;7.00;6.40;;;17.60;99.90;;;;;;5029250;28;21149;-92
2022/09/06 04:25:12;;;;;;;7.23;6.63;;;17.60;99.90;;;;;;5013310;28;21023;-93
2022/09/06 04:27:39;;;;;;;6.63;6.00;;;17.50;99.90;;;;;;5029033;28;20630;-93
2022/09/06 04:30:09;;;;;;;8.10;6.30;;;17.50;99.90;;;;;;5032620;28;20654;-93
2022/09/06 04:32:35;;;;;;;6.40;5.90;;;17.50;99.90;;;;;;5028042;28;22105;-93
2022/09/06 04:35:03;;;;;;;5.90;5.50;;;17.40;99.90;;;;;;5027927;28;21040;-93
2022/09/06 04:37:30;;;;;;;7.20;6.47;;;17.40;99.90;;;;;;5031909;28;20630;-93
2022/09/06 04:39:57;;;;;;;6.57;6.00;;;17.40;99.90;;;;;;5033519;28;20678;-93
2022/09/06 04:42:24;;;;;;;6.30;5.20;;;17.50;99.90;;;;;;4996734;28;20960;-93
2022/09/06 04:44:51;;;;;;;6.80;6.20;;;17.50;99.90;;;;;;5027843;28;20985;-93
2022/09/06 04:47:19;;;;;;;7.80;5.63;;;17.40;99.90;;;;;;5028363;28;20790;-93
2022/09/06 04:49:47;;;;;;;6.53;6.07;;;17.40;99.90;;;;;;5029096;28;20654;-93
2022/09/06 04:52:13;;;;;;;7.17;6.47;;;17.40;99.90;;;;;;5030098;28;20641;-92
2022/09/06 04:54:40;;;;;;;6.80;6.23;;;17.30;99.90;;;;;;5030374;28;20762;-93
2022/09/06 04:57:07;;;;;;;7.43;6.77;;;17.30;99.90;;;;;;5029305;28;20641;-92
2022/09/06 04:59:34;;;;;;;8.43;6.73;;;17.30;99.90;;;;;;5029579;28;21343;-93
2022/09/06 05:02:01;;;;;;;6.80;6.20;;;17.30;99.90;;;;;;5028629;28;20642;-94
2022/09/06 05:04:29;;;;;;;7.27;6.70;;;17.30;99.90;;;;;;5028370;28;21074;-93
2022/09/06 05:07:01;;;;;;;7.47;6.77;;;17.20;99.90;;;;;;5043339;28;21125;-93
2022/09/06 05:09:28;;;;;;;12.03;10.80;;;17.30;99.90;;;;;;5047701;28;20650;-92
2022/09/06 05:11:55;;;;;;;11.33;10.37;;;17.20;99.90;;;;;;5039406;28;20621;-93
2022/09/06 05:14:22;;;;;;;15.10;14.00;;;17.20;99.90;;;;;;5038413;28;21196;-94
2022/09/06 05:16:50;;;;;;;13.53;12.30;;;17.20;99.90;;;;;;5031459;28;20630;-94
2022/09/06 05:19:17;;;;;;;11.50;10.50;;;17.20;99.90;;;;;;5028113;28;20681;-92
2022/09/06 05:21:46;;;;;;;10.13;9.43;;;17.20;99.90;;;;;;5037228;28;20713;-95
2022/09/06 05:24:13;;;;;;;13.20;12.20;;;17.20;99.90;;;;;;5030795;28;21153;-92
2022/09/06 05:26:40;;;;;;;12.83;11.70;;;17.20;99.90;;;;;;5036885;28;20629;-96
2022/09/06 05:29:07;;;;;;;17.37;15.80;;;17.30;99.90;;;;;;5034534;28;20668;-95
2022/09/06 05:31:35;;;;;;;10.80;9.90;;;17.20;99.90;;;;;;5031727;28;20634;-94
2022/09/06 05:34:01;;;;;;;8.20;7.60;;;17.30;99.90;;;;;;5030618;28;20674;-95
2022/09/06 05:36:30;;;;;;;8.10;7.37;;;17.30;99.90;;;;;;5030737;28;20652;-95
2022/09/06 05:38:59;;;;;;;9.33;8.63;;;17.30;99.90;;;;;;5040916;28;20741;-95
2022/09/06 05:41:26;;;;;;;12.43;11.53;;;17.40;99.90;;;;;;5035384;28;20630;-94
2022/09/06 05:43:53;;;;;;;9.70;8.50;;;17.40;99.90;;;;;;5036495;28;20634;-95
2022/09/06 05:46:20;;;;;;;9.20;8.40;;;17.50;99.90;;;;;;5033141;28;20607;-95
2022/09/06 05:48:53;;;;;;;7.80;7.10;;;17.50;99.90;;;;;;5030307;28;21058;-95
2022/09/06 05:51:20;;;;;;;7.47;6.87;;;17.50;99.90;;;;;;5030330;28;20718;-95
2022/09/06 05:53:47;;;;;;;8.03;7.20;;;17.60;99.90;;;;;;5029914;28;20619;-94
2022/09/06 05:56:17;;;;;;;6.63;6.13;;;17.50;99.90;;;;;;5034629;28;20694;-95
2022/09/06 05:58:44;;;;;;;8.57;7.37;;;17.60;99.90;;;;;;5030271;28;21208;-95
2022/09/06 06:01:16;;;;;;;8.60;7.80;;;17.70;99.90;;;;;;5030097;28;20920;-95
2022/09/06 06:03:49;;;;;;;10.60;7.50;;;17.70;99.90;;;;;;5033996;28;20642;-95
2022/09/06 06:06:16;;;;;;;9.23;6.93;;;17.80;99.90;;;;;;5029879;28;20638;-95
2022/09/06 06:08:43;;;;;;;7.70;7.03;;;17.80;99.90;;;;;;5035005;28;20651;-95
2022/09/06 06:11:10;;;;;;;7.77;6.53;;;17.80;99.90;;;;;;5012656;28;20935;-95
2022/09/06 06:13:39;;;;;;;7.60;7.00;;;17.90;99.90;;;;;;5030245;28;20630;-95
2022/09/06 06:16:07;;;;;;;7.40;6.80;;;17.90;99.90;;;;;;5029719;28;20669;-95
2022/09/06 06:18:34;;;;;;;7.50;6.90;;;17.80;99.90;;;;;;5020886;28;21112;-95
2022/09/06 06:21:09;;;;;;;8.10;7.33;;;17.90;99.90;;;;;;5030600;28;20638;-95
2022/09/06 06:23:36;;;;;;;7.80;7.20;;;17.80;99.90;;;;;;5039672;28;20617;-95
2022/09/06 06:26:03;;;;;;;7.47;6.50;;;17.80;99.90;;;;;;5058050;28;20712;-95
2022/09/06 06:28:30;;;;;;;7.87;7.17;;;17.80;99.90;;;;;;5035100;28;20671;-94
2022/09/06 06:30:58;;;;;;;8.70;7.90;;;17.80;99.90;;;;;;5029662;28;21018;-94
2022/09/06 06:33:25;;;;;;;8.50;7.80;;;17.80;99.90;;;;;;5033086;28;20614;-94
2022/09/06 06:36:03;;;;;;;10.57;8.27;;;17.80;99.90;;;;;;5030599;28;20661;-94
2022/09/06 06:38:34;;;;;;;7.63;7.03;;;17.90;99.90;;;;;;5029513;28;20705;-94
2022/09/06 06:41:01;;;;;;;8.53;7.87;;;18.00;99.90;;;;;;5030439;28;20622;-94
2022/09/06 06:43:35;;;;;;;7.77;6.93;;;18.00;99.90;;;;;;5030038;28;20634;-94
2022/09/06 06:46:03;;;;;;;8.77;6.97;;;18.10;99.90;;;;;;5025427;28;20647;-94
2022/09/06 06:48:30;;;;;;;8.43;7.73;;;18.10;99.90;;;;;;5028632;28;20645;-94
2022/09/06 06:50:57;;;;;;;8.73;8.03;;;18.10;99.90;;;;;;5028765;28;20673;-95
2022/09/06 06:53:24;;;;;;;9.70;8.80;;;18.20;99.90;;;;;;5010393;28;20693;-94
2022/09/06 06:55:51;;;;;;;10.27;7.50;;;18.20;99.90;;;;;;5030251;28;20669;-94
2022/09/06 06:58:18;;;;;;;8.40;7.60;;;18.20;99.90;;;;;;5040911;28;20758;-94
2022/09/06 07:00:46;;;;;;;8.90;7.60;;;18.30;99.90;;;;;;5030808;28;20753;-93
2022/09/06 07:03:15;;;;;;;9.90;8.20;;;18.40;99.90;;;;;;5029513;28;21052;-94
2022/09/06 07:05:43;;;;;;;7.60;7.10;;;18.50;99.90;;;;;;5030736;28;20598;-94
2022/09/06 07:08:11;;;;;;;7.60;6.80;;;18.60;99.90;;;;;;5033567;28;20748;-93
2022/09/06 07:10:38;;;;;;;9.47;6.47;;;18.60;99.90;;;;;;5027338;28;20615;-94
2022/09/06 07:13:05;;;;;;;7.87;7.27;;;18.70;99.90;;;;;;5029439;28;20706;-94
2022/09/06 07:15:32;;;;;;;7.90;7.10;;;18.80;99.90;;;;;;5029307;28;20793;-93
2022/09/06 07:18:00;;;;;;;7.07;6.57;;;18.80;99.90;;;;;;5040860;28;20700;-93
2022/09/06 07:20:28;;;;;;;9.60;6.40;;;18.90;99.90;;;;;;5026022;28;21250;-94
2022/09/06 07:23:03;;;;;;;8.40;7.30;;;19.20;99.90;;;;;;5029102;28;20631;-94
2022/09/06 07:25:29;;;;;;;7.20;6.50;;;19.30;99.90;;;;;;5026923;28;21384;-93
2022/09/06 07:30:32;;;;;;;8.33;6.43;;;19.40;99.90;;;;;;3371021;26;20689;-84
2022/09/06 07:32:59;;;;;;;7.63;6.60;;;19.50;99.90;;;;;;5043792;28;20651;-81
2022/09/06 07:35:27;;;;;;;7.53;6.73;;;19.40;99.90;;;;;;5044123;28;20677;-82
2022/09/06 07:37:55;;;;;;;6.63;5.33;;;19.50;99.90;;;;;;5047138;28;20626;-83
2022/09/06 07:40:22;;;;;;;5.40;5.00;;;19.60;99.90;;;;;;5045471;28;20657;-82
2022/09/06 07:42:49;;;;;;;8.63;5.77;;;19.50;99.90;;;;;;5046911;28;20617;-83
2022/09/06 07:45:16;;;;;;;5.33;4.93;;;19.50;99.90;;;;;;5040482;28;20665;-83
2022/09/06 07:47:43;;;;;;;8.00;6.53;;;19.50;99.90;;;;;;5038790;28;20634;-83
2022/09/06 07:50:10;;;;;;;6.10;5.13;;;19.50;99.90;;;;;;5042682;28;20653;-83
2022/09/06 07:52:38;;;;;;;7.10;5.37;;;19.70;99.90;;;;;;5041070;28;20641;-83
2022/09/06 07:55:06;;;;;;;10.90;6.00;;;19.80;99.90;;;;;;5040262;28;20670;-83
2022/09/06 07:57:33;;;;;;;6.13;5.63;;;19.90;99.90;;;;;;5039965;28;21175;-83
2022/09/06 08:00:01;;;;;;;9.13;5.17;;;20.10;99.90;;;;;;5042403;28;20662;-82
2022/09/06 08:02:28;;;;;;;9.90;5.70;;;20.20;99.90;;;;;;5043998;28;20632;-82
2022/09/06 08:04:55;;;;;;;5.87;5.30;;;20.30;99.90;;;;;;5045862;28;21024;-82
2022/09/06 08:07:23;;;;;;;6.50;4.80;;;20.50;99.90;;;;;;5042974;28;20799;-82
2022/09/06 08:09:51;;;;;;;4.70;4.20;;;20.60;99.90;;;;;;5038473;28;20660;-82
2022/09/06 08:12:18;;;;;;;4.20;3.63;;;20.70;99.90;;;;;;5040271;28;20639;-81
2022/09/06 08:14:45;;;;;;;5.37;4.03;;;20.70;99.90;;;;;;5041771;28;20665;-81
2022/09/06 08:17:11;;;;;;;6.13;4.33;;;20.80;99.90;;;;;;5044575;28;20634;-82
2022/09/06 08:19:39;;;;;;;7.10;4.60;;;20.90;99.90;;;;;;5045359;28;20664;-82
2022/09/06 08:22:06;;;;;;;5.03;4.40;;;21.00;99.90;;;;;;5041759;28;21189;-82
2022/09/06 08:24:34;;;;;;;6.53;4.90;;;21.20;99.90;;;;;;5043491;28;20954;-82
2022/09/06 08:27:06;;;;;;;8.07;5.00;;;21.30;99.90;;;;;;5040451;28;20690;-82
2022/09/06 08:29:33;;;;;;;5.57;4.00;;;21.30;99.90;;;;;;5039372;28;20669;-82
2022/09/06 08:32:00;;;;;;;4.17;3.80;;;21.50;99.90;;;;;;5042743;28;20630;-82
2022/09/06 08:34:27;;;;;;;4.57;4.27;;;21.60;99.90;;;;;;5044467;28;20633;-82
2022/09/06 08:36:53;;;;;;;7.20;4.87;;;21.70;99.90;;;;;;5045830;28;20636;-82
2022/09/06 08:39:20;;;;;;;3.93;3.57;;;21.80;99.90;;;;;;5042483;28;20689;-82
2022/09/06 08:41:52;;;;;;;5.37;4.07;;;21.90;99.90;;;;;;5040646;28;21187;-82
2022/09/06 08:44:23;;;;;;;6.70;4.00;;;21.90;99.90;;;;;;5039651;28;20634;-82
2022/09/06 08:46:55;;;;;;;6.07;4.13;;;22.00;99.90;;;;;;5035018;28;21016;-82
2022/09/06 08:49:22;;;;;;;4.80;3.60;;;22.10;99.90;;;;;;5040334;28;20664;-82
2022/09/06 08:52:32;;;;;;;4.70;4.33;;;22.30;99.90;;;;;;5041331;28;20707;-82
2022/09/06 08:55:13;;;;;;;4.13;3.80;;;22.40;99.90;;;;;;5041739;28;21086;-82
2022/09/06 08:57:54;;;;;;;5.60;4.37;;;22.60;99.90;;;;;;5042832;28;20614;-82
2022/09/06 09:00:23;;;;;;;4.30;4.00;;;22.70;99.90;;;;;;5048124;28;20650;-82
2022/09/06 09:02:55;;;;;;;5.20;4.30;;;22.90;99.90;;;;;;5049833;28;20630;-82
2022/09/06 09:05:25;;;;;;;4.67;4.10;;;23.00;99.90;;;;;;5027131;28;20622;-82
2022/09/06 09:08:01;;;;;;;5.07;3.87;;;23.20;99.90;;;;;;5050911;28;20648;-82
2022/09/06 09:10:31;;;;;;;4.67;4.20;;;23.30;99.90;;;;;;5043064;28;20665;-82
2022/09/06 09:13:03;;;;;;;4.07;3.77;;;23.40;99.90;;;;;;5043509;28;21063;-82
2022/09/06 09:15:31;;;;;;;4.57;4.10;;;23.50;99.90;;;;;;5048789;28;20662;-82
2022/09/06 09:17:59;;;;;;;8.10;4.73;;;23.70;99.90;;;;;;5046479;28;20634;-82
2022/09/06 09:20:26;;;;;;;3.23;3.03;;;23.90;99.90;;;;;;5041364;28;20659;-82
2022/09/06 09:22:53;;;;;;;4.50;3.80;;;24.00;99.90;;;;;;5043656;28;20633;-82
2022/09/06 09:25:23;;;;;;;5.40;4.27;;;24.10;99.90;;;;;;5051849;28;20614;-82
2022/09/06 09:27:56;;;;;;;4.37;3.50;;;24.20;99.90;;;;;;5043198;28;20681;-82
2022/09/06 09:30:23;;;;;;;3.97;3.67;;;24.30;99.90;;;;;;5041949;28;20673;-82
2022/09/06 09:32:51;;;;;;;6.50;4.93;;;24.50;99.90;;;;;;5043934;28;20629;-82
2022/09/06 09:35:29;;;;;;;4.50;4.10;;;24.70;99.90;;;;;;5041410;28;20882;-82
2022/09/06 09:38:01;;;;;;;4.00;3.67;;;24.80;99.90;;;;;;5047891;28;20622;-83
2022/09/06 09:40:30;;;;;;;4.63;3.90;;;25.00;99.90;;;;;;5051484;28;20656;-83
2022/09/06 09:43:11;;;;;;;4.23;3.87;;;25.20;99.90;;;;;;5048239;28;20630;-83
2022/09/06 09:45:37;;;;;;;3.97;3.57;;;25.50;99.90;;;;;;5042255;28;20633;-83
2022/09/06 09:48:20;;;;;;;6.20;4.77;;;25.50;99.90;;;;;;5044189;28;20627;-83
2022/09/06 09:50:48;;;;;;;4.67;3.77;;;25.50;99.90;;;;;;5040502;28;20649;-83
2022/09/06 09:53:17;;;;;;;7.40;3.97;;;25.60;99.90;;;;;;5048973;28;20633;-83
2022/09/06 09:55:45;;;;;;;3.57;3.27;;;25.60;99.90;;;;;;5046452;28;20676;-83
2022/09/06 09:58:24;;;;;;;6.27;4.00;;;25.70;99.90;;;;;;5043211;28;20621;-83
2022/09/06 10:01:10;;;;;;;6.30;4.50;;;25.80;99.90;;;;;;5041854;28;20664;-83
2022/09/06 10:03:39;;;;;;;4.70;3.97;;;26.10;99.90;;;;;;5042079;28;20651;-83
2022/09/06 10:06:09;;;;;;;3.73;3.43;;;26.40;99.90;;;;;;5041111;28;20654;-83
2022/09/06 10:08:41;;;;;;;5.17;3.50;;;26.70;99.90;;;;;;5048290;28;20636;-83
2022/09/06 10:11:11;;;;;;;4.80;4.07;;;26.90;99.90;;;;;;5042978;28;20621;-83
2022/09/06 10:13:40;;;;;;;4.67;3.83;;;27.10;99.90;;;;;;5041926;28;20622;-83
2022/09/06 10:16:07;;;;;;;5.57;3.40;;;27.30;99.90;;;;;;5044289;28;20723;-83
2022/09/06 10:18:37;;;;;;;4.53;3.60;;;27.60;99.90;;;;;;5047750;28;20632;-82
2022/09/06 10:21:08;;;;;;;10.10;4.80;;;27.80;99.90;;;;;;5042833;28;21226;-83
2022/09/06 10:23:48;;;;;;;6.00;4.20;;;28.10;99.90;;;;;;5042092;28;20636;-83
2022/09/06 10:26:19;;;;;;;4.50;4.10;;;28.30;99.90;;;;;;5044799;28;20621;-83
2022/09/06 10:28:46;;;;;;;5.47;4.33;;;28.40;99.90;;;;;;5036245;28;20617;-82
2022/09/06 10:31:47;;;;;;;8.10;4.13;;;28.50;99.90;;;;;;5042088;28;20641;-83
2022/09/06 10:34:36;;;;;;;7.63;3.70;;;28.70;99.90;;;;;;5045646;28;20633;-83
2022/09/06 10:37:15;;;;;;;6.57;3.00;;;28.90;99.90;;;;;;5037715;28;20670;-83
2022/09/06 10:39:49;;;;;;;7.27;3.60;;;29.00;99.90;;;;;;5046402;28;21252;-83
2022/09/06 10:42:28;;;;;;;5.80;3.93;;;29.20;99.90;;;;;;5047707;28;20649;-83
2022/09/06 10:45:23;;;;;;;5.97;3.50;;;29.20;99.70;;;;;;5037910;28;20618;-83
2022/09/06 10:47:57;;;;;;;8.33;3.70;;;29.30;97.50;;;;;;5046428;28;20624;-83
2022/09/06 10:50:30;;;;;;;6.90;3.23;;;29.30;97.40;;;;;;5045661;28;20654;-83
2022/09/06 10:53:05;;;;;;;4.80;3.57;;;29.10;97.90;;;;;;5042904;28;21286;-83
2022/09/06 10:55:32;;;;;;;5.37;3.83;;;28.90;98.00;;;;;;5044592;28;20656;-83
2022/09/06 10:58:04;;;;;;;6.40;3.53;;;28.90;97.60;;;;;;5038681;28;20631;-83
2022/09/06 11:00:35;;;;;;;6.30;3.57;;;28.80;97.20;;;;;;5040775;28;20735;-83
2022/09/06 11:03:12;;;;;;;5.70;3.60;;;28.50;97.90;;;;;;5047483;28;20995;-83
2022/09/06 11:05:44;;;;;;;6.00;3.47;;;28.40;99.40;;;;;;5039885;28;20628;-83
2022/09/06 11:08:17;;;;;;;9.77;3.27;;;28.30;99.90;;;;;;5043888;28;20641;-82
2022/09/06 11:10:48;;;;;;;8.63;3.30;;;28.40;99.90;;;;;;5040699;28;20646;-83
2022/09/06 11:13:18;;;;;;;7.80;3.60;;;28.40;99.70;;;;;;5047869;28;20691;-83
2022/09/06 11:15:48;;;;;;;7.10;3.53;;;28.50;99.40;;;;;;5036382;28;20662;-83
2022/09/06 11:18:22;;;;;;;9.00;4.07;;;28.50;98.90;;;;;;5040372;28;20625;-83
2022/09/06 11:21:10;;;;;;;7.83;3.70;;;28.40;99.10;;;;;;5042799;28;20656;-83
2022/09/06 11:23:48;;;;;;;7.93;3.60;;;28.40;99.90;;;;;;5046150;28;20630;-83
2022/09/06 11:26:34;;;;;;;9.37;4.00;;;28.50;99.90;;;;;;5039742;28;20634;-82
2022/09/06 11:29:06;;;;;;;6.70;3.47;;;28.40;99.90;;;;;;5042460;28;20667;-83
2022/09/06 11:31:48;;;;;;;10.17;3.77;;;28.50;99.90;;;;;;5040388;28;20622;-83
2022/09/06 11:34:20;;;;;;;9.60;5.27;;;28.60;99.90;;;;;;5045076;28;20962;-83
2022/09/06 11:36:49;;;;;;;6.47;3.97;;;28.70;99.90;;;;;;5034110;28;20700;-83
2022/09/06 11:39:25;;;;;;;5.60;3.20;;;28.70;99.40;;;;;;5040381;28;21166;-83
2022/09/06 11:41:52;;;;;;;6.27;3.30;;;28.80;99.10;;;;;;5039511;28;20625;-83
2022/09/06 11:44:51;;;;;;;7.03;4.43;;;28.90;97.00;;;;;;5040122;28;20626;-83
2022/09/06 11:47:37;;;;;;;8.90;3.70;;;29.00;97.90;;;;;;5040522;28;20633;-83
2022/09/06 11:50:23;;;;;;;5.90;4.23;;;29.20;96.70;;;;;;5040446;28;20654;-83
2022/09/06 11:52:55;;;;;;;4.70;3.47;;;29.40;96.80;;;;;;5033970;28;20656;-83
2022/09/06 11:55:30;;;;;;;5.03;3.03;;;29.40;95.10;;;;;;5040179;28;20617;-83
2022/09/06 11:57:59;;;;;;;6.60;3.80;;;29.60;94.70;;;;;;5037372;28;20866;-83
2022/09/06 12:00:26;;;;;;;8.60;3.80;;;29.90;94.20;;;;;;5045947;28;20665;-83
2022/09/06 12:02:53;;;;;;;5.20;3.10;;;30.20;93.00;;;;;;5041543;28;20634;-83
2022/09/06 12:05:29;;;;;;;7.07;3.70;;;30.50;92.60;;;;;;5048548;28;21128;-83
2022/09/06 12:08:32;;;;;;;7.23;3.40;;;30.90;90.60;;;;;;5046205;28;20708;-83
2022/09/06 12:11:03;;;;;;;12.53;4.10;;;31.30;87.90;;;;;;5035079;28;21198;-83
2022/09/06 12:13:53;;;;;;;7.83;3.73;;;31.60;84.00;;;;;;5040370;28;20633;-83
2022/09/06 12:16:20;;;;;;;6.13;3.50;;;32.10;81.80;;;;;;5037528;28;20670;-83
2022/09/06 12:19:09;;;;;;;5.70;4.17;;;32.40;77.80;;;;;;5040353;28;20637;-83
2022/09/06 12:21:40;;;;;;;10.13;3.73;;;32.70;74.50;;;;;;5035333;28;20822;-83
2022/09/06 12:24:09;;;;;;;11.17;4.67;;;33.10;74.00;;;;;;5043489;28;20741;-83
2022/09/06 12:26:49;;;;;;;4.47;3.57;;;33.20;70.90;;;;;;5040472;28;21143;-83
2022/09/06 12:29:22;;;;;;;5.53;3.13;;;33.50;71.10;;;;;;5046911;28;20746;-84
2022/09/06 12:31:53;;;;;;;5.83;3.30;;;33.80;69.30;;;;;;5046687;28;20624;-84
2022/09/06 12:34:22;;;;;;;9.00;4.43;;;34.10;67.20;;;;;;5052511;28;20629;-84
2022/09/06 12:36:53;;;;;;;6.10;3.80;;;34.50;65.30;;;;;;5050133;28;20654;-84
2022/09/06 12:39:21;;;;;;;7.03;3.90;;;34.80;63.10;;;;;;5044055;28;20866;-83
2022/09/06 12:41:51;;;;;;;3.60;2.93;;;34.90;60.80;;;;;;5050561;28;20629;-83
2022/09/06 12:44:23;;;;;;;5.43;3.60;;;34.80;60.60;;;;;;5049733;28;20641;-83
2022/09/06 12:46:51;;;;;;;6.63;3.80;;;34.60;60.20;;;;;;5040300;28;20695;-84
2022/09/06 12:49:21;;;;;;;5.63;3.53;;;34.60;62.30;;;;;;5045975;28;20648;-84
2022/09/06 12:51:48;;;;;;;6.23;3.47;;;34.70;60.60;;;;;;5048649;28;20625;-83
2022/09/06 12:54:22;;;;;;;5.60;2.83;;;34.80;61.00;;;;;;5039994;28;20199;-83
2022/09/06 12:56:53;;;;;;;6.83;3.47;;;34.30;61.80;;;;;;5047651;28;20654;-83
2022/09/06 12:59:23;;;;;;;9.70;3.50;;;33.40;62.80;;;;;;5047133;28;20664;-83
2022/09/06 13:01:59;;;;;;;7.13;3.40;;;32.90;63.60;;;;;;5040505;28;20625;-83
2022/09/06 13:04:31;;;;;;;4.60;3.53;;;32.70;65.00;;;;;;5042157;28;20726;-83
2022/09/06 13:06:59;;;;;;;7.13;3.73;;;32.90;66.60;;;;;;5046227;28;20613;-83